sensor_id;sensor_type;location;lat;lon;timestamp;temperature;humidity
4795;DHT22;2411;47.060;15.064;2022-10-16T00:01:33;8.70;1.00
4795;DHT22;2411;47.060;15.064;2022-10-16T00:04:00;8.70;1.00
4795;DHT22;2411;47.060;15.064;2022-10-16T00:06:28;8.60;1.00
4795;DHT22;2411;47.060;15.064;2022-10-16T00:08:55;8.50;1.00
4795;DHT22;2411;47.060;15.064;2022-10-16T00:11:25;8.50;1.00
4795;DHT22;2411;47.060;15.064;2022-10-16T00:13:56;8.50;1.00
4795;DHT22;2411;47.060;15.064;2022-10-16T00:16:23;8.50;99.90
4795;DHT22;2411;47.060;15.064;2022-10-16T00:18:51;8.50;99.90
4795;DHT22;2411;47.060;15.064;2022-10-16T00:21:22;8.60;99.90
4795;DHT22;2411;47.060;15.064;2022-10-16T00:23:54;8.70;99.90
4795;DHT22;2411;47.060;15.064;2022-10-16T00:26:22;8.80;99.90
4795;DHT22;2411;47.060;15.064;2022-10-16T00:28:50;8.80;99.90
4795;DHT22;2411;47.060;15.064;2022-10-16T00:31:20;8.80;99.90
4795;DHT22;2411;47.060;15.064;2022-10-16T00:33:48;9.00;1.00
4795;DHT22;2411;47.060;15.064;2022-10-16T00:36:18;9.10;99.90
4795;DHT22;2411;47.060;15.064;2022-10-16T00:38:45;9.20;99.90
4795;DHT22;2411;47.060;15.064;2022-10-16T00:41:15;9.20;99.90
4795;DHT22;2411;47.060;15.064;2022-10-16T00:43:45;9.30;99.90
4795;DHT22;2411;47.060;15.064;2022-10-16T00:46:28;9.40;99.90
4795;DHT22;2411;47.060;15.064;2022-10-16T00:51:30;9.40;99.90
4795;DHT22;2411;47.060;15.064;2022-10-16T00:53:58;9.40;99.90
4795;DHT22;2411;47.060;15.064;2022-10-16T00:56:26;9.50;99.90
4795;DHT22;2411;47.060;15.064;2022-10-16T00:58:53;9.60;99.90
4795;DHT22;2411;47.060;15.064;2022-10-16T01:01:20;9.60;99.90
4795;DHT22;2411;47.060;15.064;2022-10-16T01:03:48;9.60;99.90
4795;DHT22;2411;47.060;15.064;2022-10-16T01:06:25;9.50;99.90
4795;DHT22;2411;47.060;15.064;2022-10-16T01:09:17;9.50;99.90
4795;DHT22;2411;47.060;15.064;2022-10-16T01:20:22;9.50;1.00
4795;DHT22;2411;47.060;15.064;2022-10-16T01:28:41;9.30;1.00
4795;DHT22;2411;47.060;15.064;2022-10-16T01:31:15;9.20;1.00
4795;DHT22;2411;47.060;15.064;2022-10-16T01:33:47;9.10;1.00
4795;DHT22;2411;47.060;15.064;2022-10-16T01:36:29;9.10;1.00
4795;DHT22;2411;47.060;15.064;2022-10-16T01:39:01;9.10;1.00
4795;DHT22;2411;47.060;15.064;2022-10-16T01:41:34;9.00;1.00
4795;DHT22;2411;47.060;15.064;2022-10-16T01:44:14;9.10;1.00
4795;DHT22;2411;47.060;15.064;2022-10-16T01:46:46;9.00;1.00
4795;DHT22;2411;47.060;15.064;2022-10-16T01:49:14;9.10;1.00
4795;DHT22;2411;47.060;15.064;2022-10-16T01:51:46;9.30;1.00
4795;DHT22;2411;47.060;15.064;2022-10-16T01:54:15;9.20;99.90
4795;DHT22;2411;47.060;15.064;2022-10-16T01:56:43;9.10;99.90
4795;DHT22;2411;47.060;15.064;2022-10-16T01:59:14;9.00;99.90
4795;DHT22;2411;47.060;15.064;2022-10-16T02:01:47;8.90;99.90
4795;DHT22;2411;47.060;15.064;2022-10-16T02:04:24;8.80;99.90
4795;DHT22;2411;47.060;15.064;2022-10-16T02:06:54;8.70;99.90
4795;DHT22;2411;47.060;15.064;2022-10-16T02:09:21;8.80;1.00
4795;DHT22;2411;47.060;15.064;2022-10-16T02:11:51;8.70;1.00
4795;DHT22;2411;47.060;15.064;2022-10-16T02:14:21;8.60;1.00
4795;DHT22;2411;47.060;15.064;2022-10-16T02:16:51;8.60;1.00
4795;DHT22;2411;47.060;15.064;2022-10-16T02:19:19;8.60;1.00
4795;DHT22;2411;47.060;15.064;2022-10-16T02:21:56;8.60;1.00
4795;DHT22;2411;47.060;15.064;2022-10-16T02:24:32;8.70;1.00
4795;DHT22;2411;47.060;15.064;2022-10-16T02:27:05;8.70;1.00
4795;DHT22;2411;47.060;15.064;2022-10-16T02:29:33;8.60;1.00
4795;DHT22;2411;47.060;15.064;2022-10-16T02:32:06;8.60;1.00
4795;DHT22;2411;47.060;15.064;2022-10-16T02:34:35;8.60;1.00
4795;DHT22;2411;47.060;15.064;2022-10-16T02:37:04;8.50;1.00
4795;DHT22;2411;47.060;15.064;2022-10-16T02:39:32;8.50;1.00
4795;DHT22;2411;47.060;15.064;2022-10-16T02:42:00;8.50;1.00
4795;DHT22;2411;47.060;15.064;2022-10-16T02:44:28;8.50;1.00
4795;DHT22;2411;47.060;15.064;2022-10-16T02:46:55;8.60;1.00
4795;DHT22;2411;47.060;15.064;2022-10-16T02:49:22;8.50;1.00
4795;DHT22;2411;47.060;15.064;2022-10-16T02:51:49;8.50;1.00
4795;DHT22;2411;47.060;15.064;2022-10-16T02:54:16;8.50;1.00
4795;DHT22;2411;47.060;15.064;2022-10-16T02:56:43;8.50;1.00
4795;DHT22;2411;47.060;15.064;2022-10-16T02:59:11;8.60;1.00
4795;DHT22;2411;47.060;15.064;2022-10-16T03:01:38;8.70;1.00
4795;DHT22;2411;47.060;15.064;2022-10-16T03:04:05;8.60;1.00
4795;DHT22;2411;47.060;15.064;2022-10-16T03:06:32;8.60;1.00
4795;DHT22;2411;47.060;15.064;2022-10-16T03:08:59;8.60;1.00
4795;DHT22;2411;47.060;15.064;2022-10-16T03:11:27;8.60;1.00
4795;DHT22;2411;47.060;15.064;2022-10-16T03:13:55;8.60;1.00
4795;DHT22;2411;47.060;15.064;2022-10-16T03:16:22;8.60;1.00
4795;DHT22;2411;47.060;15.064;2022-10-16T03:18:49;8.70;1.00
4795;DHT22;2411;47.060;15.064;2022-10-16T03:21:16;8.80;1.00
4795;DHT22;2411;47.060;15.064;2022-10-16T03:23:44;8.80;9.00
4795;DHT22;2411;47.060;15.064;2022-10-16T03:26:11;8.90;99.90
4795;DHT22;2411;47.060;15.064;2022-10-16T03:28:38;9.00;99.90
4795;DHT22;2411;47.060;15.064;2022-10-16T03:31:05;9.00;99.90
4795;DHT22;2411;47.060;15.064;2022-10-16T03:33:32;8.90;99.90
4795;DHT22;2411;47.060;15.064;2022-10-16T03:36:00;8.80;99.90
4795;DHT22;2411;47.060;15.064;2022-10-16T03:38:27;8.70;99.90
4795;DHT22;2411;47.060;15.064;2022-10-16T03:40:54;8.60;99.90
4795;DHT22;2411;47.060;15.064;2022-10-16T03:43:21;8.60;99.90
4795;DHT22;2411;47.060;15.064;2022-10-16T03:45:50;8.60;99.90
4795;DHT22;2411;47.060;15.064;2022-10-16T03:48:19;8.70;99.90
4795;DHT22;2411;47.060;15.064;2022-10-16T03:50:46;8.70;99.90
4795;DHT22;2411;47.060;15.064;2022-10-16T03:53:15;8.80;99.90
4795;DHT22;2411;47.060;15.064;2022-10-16T03:55:43;8.80;99.90
4795;DHT22;2411;47.060;15.064;2022-10-16T03:58:11;8.80;99.90
4795;DHT22;2411;47.060;15.064;2022-10-16T04:00:42;8.80;99.90
4795;DHT22;2411;47.060;15.064;2022-10-16T04:03:10;8.90;99.90
4795;DHT22;2411;47.060;15.064;2022-10-16T04:05:39;8.90;99.90
4795;DHT22;2411;47.060;15.064;2022-10-16T04:08:06;8.90;99.90
4795;DHT22;2411;47.060;15.064;2022-10-16T04:10:33;9.00;99.90
4795;DHT22;2411;47.060;15.064;2022-10-16T04:13:00;9.10;99.90
4795;DHT22;2411;47.060;15.064;2022-10-16T04:15:27;9.00;99.90
4795;DHT22;2411;47.060;15.064;2022-10-16T04:17:55;9.00;99.90
4795;DHT22;2411;47.060;15.064;2022-10-16T04:20:22;8.90;99.90
4795;DHT22;2411;47.060;15.064;2022-10-16T04:22:49;8.90;99.90
4795;DHT22;2411;47.060;15.064;2022-10-16T04:25:16;8.80;99.90
4795;DHT22;2411;47.060;15.064;2022-10-16T04:27:43;8.80;99.90
4795;DHT22;2411;47.060;15.064;2022-10-16T04:30:12;8.70;99.90
4795;DHT22;2411;47.060;15.064;2022-10-16T04:32:40;8.60;99.90
4795;DHT22;2411;47.060;15.064;2022-10-16T04:35:08;8.60;99.90
4795;DHT22;2411;47.060;15.064;2022-10-16T04:37:35;8.50;99.90
4795;DHT22;2411;47.060;15.064;2022-10-16T04:40:02;8.50;99.90
4795;DHT22;2411;47.060;15.064;2022-10-16T04:42:30;8.50;99.90
4795;DHT22;2411;47.060;15.064;2022-10-16T04:44:57;8.40;99.90
4795;DHT22;2411;47.060;15.064;2022-10-16T04:47:24;8.40;99.90
4795;DHT22;2411;47.060;15.064;2022-10-16T04:49:51;8.40;99.90
4795;DHT22;2411;47.060;15.064;2022-10-16T04:52:19;8.40;99.90
4795;DHT22;2411;47.060;15.064;2022-10-16T04:54:48;8.30;99.90
4795;DHT22;2411;47.060;15.064;2022-10-16T04:57:17;8.30;99.90
4795;DHT22;2411;47.060;15.064;2022-10-16T04:59:44;8.20;99.90
4795;DHT22;2411;47.060;15.064;2022-10-16T05:02:11;8.10;99.90
4795;DHT22;2411;47.060;15.064;2022-10-16T05:04:38;8.10;99.90
4795;DHT22;2411;47.060;15.064;2022-10-16T05:07:06;8.10;99.90
4795;DHT22;2411;47.060;15.064;2022-10-16T05:09:33;8.20;99.90
4795;DHT22;2411;47.060;15.064;2022-10-16T05:12:00;8.10;99.90
4795;DHT22;2411;47.060;15.064;2022-10-16T05:14:27;8.10;99.90
4795;DHT22;2411;47.060;15.064;2022-10-16T05:16:54;8.10;99.90
4795;DHT22;2411;47.060;15.064;2022-10-16T05:19:21;8.10;99.90
4795;DHT22;2411;47.060;15.064;2022-10-16T05:21:53;8.20;99.90
4795;DHT22;2411;47.060;15.064;2022-10-16T05:24:20;8.20;99.90
4795;DHT22;2411;47.060;15.064;2022-10-16T05:26:48;8.30;99.90
4795;DHT22;2411;47.060;15.064;2022-10-16T05:29:15;8.30;99.90
4795;DHT22;2411;47.060;15.064;2022-10-16T05:31:42;8.30;99.90
4795;DHT22;2411;47.060;15.064;2022-10-16T05:34:09;8.30;99.90
4795;DHT22;2411;47.060;15.064;2022-10-16T05:36:37;8.30;99.90
4795;DHT22;2411;47.060;15.064;2022-10-16T05:39:04;8.30;99.90
4795;DHT22;2411;47.060;15.064;2022-10-16T05:41:31;8.30;99.90
4795;DHT22;2411;47.060;15.064;2022-10-16T05:43:58;8.30;99.90
4795;DHT22;2411;47.060;15.064;2022-10-16T05:46:25;8.30;99.90
4795;DHT22;2411;47.060;15.064;2022-10-16T05:48:52;8.30;99.90
4795;DHT22;2411;47.060;15.064;2022-10-16T05:51:20;8.40;99.90
4795;DHT22;2411;47.060;15.064;2022-10-16T05:53:47;8.50;99.90
4795;DHT22;2411;47.060;15.064;2022-10-16T05:56:14;8.50;99.90
4795;DHT22;2411;47.060;15.064;2022-10-16T05:58:42;8.70;99.90
4795;DHT22;2411;47.060;15.064;2022-10-16T06:01:16;8.60;99.90
4795;DHT22;2411;47.060;15.064;2022-10-16T06:03:44;8.60;99.90
4795;DHT22;2411;47.060;15.064;2022-10-16T06:06:16;8.60;1.00
4795;DHT22;2411;47.060;15.064;2022-10-16T06:08:44;8.60;1.00
4795;DHT22;2411;47.060;15.064;2022-10-16T06:11:20;8.50;99.90
4795;DHT22;2411;47.060;15.064;2022-10-16T06:13:52;8.50;1.00
4795;DHT22;2411;47.060;15.064;2022-10-16T06:16:20;8.60;94.90
4795;DHT22;2411;47.060;15.064;2022-10-16T06:18:47;8.60;1.00
4795;DHT22;2411;47.060;15.064;2022-10-16T06:21:17;8.60;1.00
4795;DHT22;2411;47.060;15.064;2022-10-16T06:23:45;8.60;1.00
4795;DHT22;2411;47.060;15.064;2022-10-16T06:26:15;8.70;1.00
4795;DHT22;2411;47.060;15.064;2022-10-16T06:28:43;8.70;70.70
4795;DHT22;2411;47.060;15.064;2022-10-16T06:31:11;8.80;99.90
4795;DHT22;2411;47.060;15.064;2022-10-16T06:33:39;8.90;99.90
4795;DHT22;2411;47.060;15.064;2022-10-16T06:36:09;9.10;99.90
4795;DHT22;2411;47.060;15.064;2022-10-16T06:38:37;9.10;99.90
4795;DHT22;2411;47.060;15.064;2022-10-16T06:41:05;9.30;99.90
4795;DHT22;2411;47.060;15.064;2022-10-16T06:43:33;9.40;99.90
4795;DHT22;2411;47.060;15.064;2022-10-16T06:46:05;9.40;1.00
4795;DHT22;2411;47.060;15.064;2022-10-16T06:48:34;9.60;99.90
4795;DHT22;2411;47.060;15.064;2022-10-16T06:51:08;9.60;99.90
4795;DHT22;2411;47.060;15.064;2022-10-16T06:53:38;9.70;1.00
4795;DHT22;2411;47.060;15.064;2022-10-16T06:56:27;9.80;99.90
4795;DHT22;2411;47.060;15.064;2022-10-16T06:58:55;10.00;1.00
4795;DHT22;2411;47.060;15.064;2022-10-16T07:01:23;10.00;1.00
4795;DHT22;2411;47.060;15.064;2022-10-16T07:03:51;10.10;1.00
4795;DHT22;2411;47.060;15.064;2022-10-16T07:06:21;10.20;1.00
4795;DHT22;2411;47.060;15.064;2022-10-16T07:08:48;10.30;99.90
4795;DHT22;2411;47.060;15.064;2022-10-16T07:11:17;10.40;1.00
4795;DHT22;2411;47.060;15.064;2022-10-16T07:13:46;10.50;1.00
4795;DHT22;2411;47.060;15.064;2022-10-16T07:16:23;10.60;1.00
4795;DHT22;2411;47.060;15.064;2022-10-16T07:18:50;10.70;1.00
4795;DHT22;2411;47.060;15.064;2022-10-16T07:21:22;10.80;99.90
4795;DHT22;2411;47.060;15.064;2022-10-16T07:23:59;10.90;99.90
4795;DHT22;2411;47.060;15.064;2022-10-16T07:26:30;11.00;1.00
4795;DHT22;2411;47.060;15.064;2022-10-16T07:28:58;11.10;1.00
4795;DHT22;2411;47.060;15.064;2022-10-16T07:31:25;11.20;1.00
4795;DHT22;2411;47.060;15.064;2022-10-16T07:33:52;11.20;99.90
4795;DHT22;2411;47.060;15.064;2022-10-16T07:36:20;11.40;99.90
4795;DHT22;2411;47.060;15.064;2022-10-16T07:38:48;11.50;99.90
4795;DHT22;2411;47.060;15.064;2022-10-16T07:41:19;11.60;99.90
4795;DHT22;2411;47.060;15.064;2022-10-16T07:43:52;11.70;99.90
4795;DHT22;2411;47.060;15.064;2022-10-16T07:46:20;11.90;99.90
4795;DHT22;2411;47.060;15.064;2022-10-16T07:48:48;12.00;99.90
4795;DHT22;2411;47.060;15.064;2022-10-16T07:51:18;12.20;99.90
4795;DHT22;2411;47.060;15.064;2022-10-16T07:53:46;12.30;99.90
4795;DHT22;2411;47.060;15.064;2022-10-16T07:56:14;12.40;99.90
4795;DHT22;2411;47.060;15.064;2022-10-16T07:58:42;12.50;96.40
4795;DHT22;2411;47.060;15.064;2022-10-16T08:01:12;12.70;92.80
4795;DHT22;2411;47.060;15.064;2022-10-16T08:03:45;12.90;93.80
4795;DHT22;2411;47.060;15.064;2022-10-16T08:06:13;13.00;91.30
4795;DHT22;2411;47.060;15.064;2022-10-16T08:08:41;13.10;91.80
4795;DHT22;2411;47.060;15.064;2022-10-16T08:11:08;13.30;89.20
4795;DHT22;2411;47.060;15.064;2022-10-16T08:13:36;13.40;89.40
4795;DHT22;2411;47.060;15.064;2022-10-16T08:16:05;13.50;88.80
4795;DHT22;2411;47.060;15.064;2022-10-16T08:18:38;13.60;90.10
4795;DHT22;2411;47.060;15.064;2022-10-16T08:21:07;13.80;85.70
4795;DHT22;2411;47.060;15.064;2022-10-16T08:23:35;13.90;84.20
4795;DHT22;2411;47.060;15.064;2022-10-16T08:26:05;14.00;80.90
4795;DHT22;2411;47.060;15.064;2022-10-16T08:28:33;14.10;76.20
4795;DHT22;2411;47.060;15.064;2022-10-16T08:31:09;14.30;73.70
4795;DHT22;2411;47.060;15.064;2022-10-16T08:33:39;14.30;66.80
4795;DHT22;2411;47.060;15.064;2022-10-16T08:36:09;14.50;65.00
4795;DHT22;2411;47.060;15.064;2022-10-16T08:38:37;14.50;62.70
4795;DHT22;2411;47.060;15.064;2022-10-16T08:47:33;14.90;57.70
4795;DHT22;2411;47.060;15.064;2022-10-16T08:50:10;15.10;57.50
4795;DHT22;2411;47.060;15.064;2022-10-16T08:52:41;15.30;54.60
4795;DHT22;2411;47.060;15.064;2022-10-16T08:55:36;15.40;55.20
4795;DHT22;2411;47.060;15.064;2022-10-16T08:58:18;15.50;53.00
4795;DHT22;2411;47.060;15.064;2022-10-16T09:00:54;15.70;50.80
4795;DHT22;2411;47.060;15.064;2022-10-16T09:06:45;15.90;49.60
4795;DHT22;2411;47.060;15.064;2022-10-16T09:17:29;16.40;46.00
4795;DHT22;2411;47.060;15.064;2022-10-16T09:22:54;16.70;45.60
4795;DHT22;2411;47.060;15.064;2022-10-16T09:25:23;16.80;46.60
4795;DHT22;2411;47.060;15.064;2022-10-16T09:27:53;16.90;45.90
4795;DHT22;2411;47.060;15.064;2022-10-16T09:30:21;17.00;45.10
4795;DHT22;2411;47.060;15.064;2022-10-16T09:32:51;17.10;44.00
4795;DHT22;2411;47.060;15.064;2022-10-16T09:35:22;17.20;45.00
4795;DHT22;2411;47.060;15.064;2022-10-16T09:37:52;17.20;45.60
4795;DHT22;2411;47.060;15.064;2022-10-16T09:40:33;17.30;42.80
4795;DHT22;2411;47.060;15.064;2022-10-16T09:43:22;17.40;39.60
4795;DHT22;2411;47.060;15.064;2022-10-16T09:46:07;17.60;39.50
4795;DHT22;2411;47.060;15.064;2022-10-16T09:48:47;17.80;41.70
4795;DHT22;2411;47.060;15.064;2022-10-16T09:51:21;17.80;40.00
4795;DHT22;2411;47.060;15.064;2022-10-16T09:53:55;17.90;38.50
4795;DHT22;2411;47.060;15.064;2022-10-16T09:56:33;18.10;39.10
4795;DHT22;2411;47.060;15.064;2022-10-16T09:59:13;18.20;39.70
4795;DHT22;2411;47.060;15.064;2022-10-16T10:01:51;18.20;39.90
4795;DHT22;2411;47.060;15.064;2022-10-16T10:04:20;18.20;36.20
4795;DHT22;2411;47.060;15.064;2022-10-16T10:06:50;18.30;38.30
4795;DHT22;2411;47.060;15.064;2022-10-16T10:09:32;18.40;39.20
4795;DHT22;2411;47.060;15.064;2022-10-16T10:12:03;18.50;36.50
4795;DHT22;2411;47.060;15.064;2022-10-16T10:14:37;18.60;38.30
4795;DHT22;2411;47.060;15.064;2022-10-16T10:19:46;18.80;38.20
4795;DHT22;2411;47.060;15.064;2022-10-16T10:22:24;18.90;35.30
4795;DHT22;2411;47.060;15.064;2022-10-16T10:31:11;19.10;34.40
4795;DHT22;2411;47.060;15.064;2022-10-16T10:36:34;19.20;36.00
4795;DHT22;2411;47.060;15.064;2022-10-16T10:39:17;19.20;33.70
4795;DHT22;2411;47.060;15.064;2022-10-16T10:42:25;19.30;35.60
4795;DHT22;2411;47.060;15.064;2022-10-16T10:47:53;19.40;33.20
4795;DHT22;2411;47.060;15.064;2022-10-16T10:50:43;19.40;33.20
4795;DHT22;2411;47.060;15.064;2022-10-16T10:53:31;19.50;31.20
4795;DHT22;2411;47.060;15.064;2022-10-16T10:56:41;19.60;34.60
4795;DHT22;2411;47.060;15.064;2022-10-16T11:07:54;19.90;30.90
4795;DHT22;2411;47.060;15.064;2022-10-16T11:10:54;19.90;33.20
4795;DHT22;2411;47.060;15.064;2022-10-16T11:13:34;19.90;30.00
4795;DHT22;2411;47.060;15.064;2022-10-16T11:18:52;20.10;29.20
4795;DHT22;2411;47.060;15.064;2022-10-16T11:21:23;20.10;30.00
4795;DHT22;2411;47.060;15.064;2022-10-16T11:24:01;20.20;30.60
4795;DHT22;2411;47.060;15.064;2022-10-16T11:26:41;20.30;31.10
4795;DHT22;2411;47.060;15.064;2022-10-16T11:29:17;20.30;31.50
4795;DHT22;2411;47.060;15.064;2022-10-16T11:31:52;20.30;32.10
4795;DHT22;2411;47.060;15.064;2022-10-16T11:39:25;20.40;29.70
4795;DHT22;2411;47.060;15.064;2022-10-16T11:47:50;20.40;28.80
4795;DHT22;2411;47.060;15.064;2022-10-16T11:50:39;20.40;30.10
4795;DHT22;2411;47.060;15.064;2022-10-16T11:55:44;20.40;28.20
4795;DHT22;2411;47.060;15.064;2022-10-16T11:58:21;20.60;32.10
4795;DHT22;2411;47.060;15.064;2022-10-16T12:00:53;20.60;28.10
4795;DHT22;2411;47.060;15.064;2022-10-16T12:03:28;20.50;30.00
4795;DHT22;2411;47.060;15.064;2022-10-16T12:06:20;20.60;30.70
4795;DHT22;2411;47.060;15.064;2022-10-16T12:08:52;20.60;29.00
4795;DHT22;2411;47.060;15.064;2022-10-16T12:13:51;20.70;29.80
4795;DHT22;2411;47.060;15.064;2022-10-16T12:16:23;20.70;30.90
4795;DHT22;2411;47.060;15.064;2022-10-16T12:21:36;20.70;29.20
4795;DHT22;2411;47.060;15.064;2022-10-16T12:24:04;20.70;30.70
4795;DHT22;2411;47.060;15.064;2022-10-16T12:26:37;20.60;30.00
4795;DHT22;2411;47.060;15.064;2022-10-16T12:29:38;20.70;30.00
4795;DHT22;2411;47.060;15.064;2022-10-16T12:32:34;20.70;28.70
4795;DHT22;2411;47.060;15.064;2022-10-16T12:35:26;20.80;28.60
4795;DHT22;2411;47.060;15.064;2022-10-16T12:38:03;20.80;30.20
4795;DHT22;2411;47.060;15.064;2022-10-16T12:40:33;20.80;29.60
4795;DHT22;2411;47.060;15.064;2022-10-16T12:43:12;20.70;29.10
4795;DHT22;2411;47.060;15.064;2022-10-16T12:45:39;20.80;29.50
4795;DHT22;2411;47.060;15.064;2022-10-16T12:48:19;20.80;28.30
4795;DHT22;2411;47.060;15.064;2022-10-16T12:50:47;20.80;28.70
4795;DHT22;2411;47.060;15.064;2022-10-16T12:53:25;20.80;27.50
4795;DHT22;2411;47.060;15.064;2022-10-16T12:56:17;20.80;27.30
4795;DHT22;2411;47.060;15.064;2022-10-16T13:05:03;20.70;26.60
4795;DHT22;2411;47.060;15.064;2022-10-16T13:07:56;20.70;26.30
4795;DHT22;2411;47.060;15.064;2022-10-16T13:10:39;20.70;25.40
4795;DHT22;2411;47.060;15.064;2022-10-16T13:21:21;20.60;26.20
4795;DHT22;2411;47.060;15.064;2022-10-16T13:29:54;20.60;23.60
4795;DHT22;2411;47.060;15.064;2022-10-16T13:32:27;20.50;23.50
4795;DHT22;2411;47.060;15.064;2022-10-16T13:34:55;20.50;23.30
4795;DHT22;2411;47.060;15.064;2022-10-16T13:37:23;20.50;22.50
4795;DHT22;2411;47.060;15.064;2022-10-16T13:40:04;20.50;22.10
4795;DHT22;2411;47.060;15.064;2022-10-16T13:42:34;20.40;22.10
4795;DHT22;2411;47.060;15.064;2022-10-16T13:45:01;20.40;22.40
4795;DHT22;2411;47.060;15.064;2022-10-16T13:47:29;20.40;22.00
4795;DHT22;2411;47.060;15.064;2022-10-16T13:50:06;20.40;22.30
4795;DHT22;2411;47.060;15.064;2022-10-16T13:52:36;20.40;22.20
4795;DHT22;2411;47.060;15.064;2022-10-16T13:55:15;20.40;22.50
4795;DHT22;2411;47.060;15.064;2022-10-16T13:57:42;20.40;22.10
4795;DHT22;2411;47.060;15.064;2022-10-16T14:00:28;20.40;22.30
4795;DHT22;2411;47.060;15.064;2022-10-16T14:03:03;20.30;22.20
4795;DHT22;2411;47.060;15.064;2022-10-16T14:05:31;20.30;22.10
4795;DHT22;2411;47.060;15.064;2022-10-16T14:07:59;20.30;21.20
4795;DHT22;2411;47.060;15.064;2022-10-16T14:10:31;20.20;20.60
4795;DHT22;2411;47.060;15.064;2022-10-16T14:13:04;20.20;21.00
4795;DHT22;2411;47.060;15.064;2022-10-16T14:15:33;20.20;20.90
4795;DHT22;2411;47.060;15.064;2022-10-16T14:18:02;20.10;19.70
4795;DHT22;2411;47.060;15.064;2022-10-16T14:20:31;20.10;20.00
4795;DHT22;2411;47.060;15.064;2022-10-16T14:23:17;20.00;19.70
4795;DHT22;2411;47.060;15.064;2022-10-16T14:25:46;20.00;20.10
4795;DHT22;2411;47.060;15.064;2022-10-16T14:28:21;20.00;19.00
4795;DHT22;2411;47.060;15.064;2022-10-16T14:30:56;19.90;19.50
4795;DHT22;2411;47.060;15.064;2022-10-16T14:36:12;19.80;19.30
4795;DHT22;2411;47.060;15.064;2022-10-16T14:38:42;19.80;18.60
4795;DHT22;2411;47.060;15.064;2022-10-16T14:41:14;19.80;19.00
4795;DHT22;2411;47.060;15.064;2022-10-16T14:43:43;19.70;18.00
4795;DHT22;2411;47.060;15.064;2022-10-16T14:46:19;19.60;17.60
4795;DHT22;2411;47.060;15.064;2022-10-16T14:48:58;19.60;17.40
4795;DHT22;2411;47.060;15.064;2022-10-16T14:51:27;19.50;17.90
4795;DHT22;2411;47.060;15.064;2022-10-16T14:53:54;19.40;17.20
4795;DHT22;2411;47.060;15.064;2022-10-16T14:56:30;19.40;17.80
4795;DHT22;2411;47.060;15.064;2022-10-16T14:59:00;19.30;16.90
4795;DHT22;2411;47.060;15.064;2022-10-16T15:01:27;19.20;16.80
4795;DHT22;2411;47.060;15.064;2022-10-16T15:03:54;19.20;16.50
4795;DHT22;2411;47.060;15.064;2022-10-16T15:06:22;19.10;17.10
4795;DHT22;2411;47.060;15.064;2022-10-16T15:08:49;19.00;15.70
4795;DHT22;2411;47.060;15.064;2022-10-16T15:11:18;18.90;16.00
4795;DHT22;2411;47.060;15.064;2022-10-16T15:13:46;18.90;16.20
4795;DHT22;2411;47.060;15.064;2022-10-16T15:16:15;18.80;15.50
4795;DHT22;2411;47.060;15.064;2022-10-16T15:18:43;18.70;15.50
4795;DHT22;2411;47.060;15.064;2022-10-16T15:21:36;18.60;15.00
4795;DHT22;2411;47.060;15.064;2022-10-16T15:24:09;18.50;14.20
4795;DHT22;2411;47.060;15.064;2022-10-16T15:26:42;18.40;14.70
4795;DHT22;2411;47.060;15.064;2022-10-16T15:29:09;18.40;14.40
4795;DHT22;2411;47.060;15.064;2022-10-16T15:31:37;18.30;13.70
4795;DHT22;2411;47.060;15.064;2022-10-16T15:34:04;18.20;13.80
4795;DHT22;2411;47.060;15.064;2022-10-16T15:36:34;18.00;14.00
4795;DHT22;2411;47.060;15.064;2022-10-16T15:39:21;17.80;13.90
4795;DHT22;2411;47.060;15.064;2022-10-16T15:41:48;17.60;26.40
4795;DHT22;2411;47.060;15.064;2022-10-16T15:44:19;17.40;12.30
4795;DHT22;2411;47.060;15.064;2022-10-16T15:46:47;17.20;11.20
4795;DHT22;2411;47.060;15.064;2022-10-16T15:49:14;17.00;11.10
4795;DHT22;2411;47.060;15.064;2022-10-16T15:51:42;16.90;11.30
4795;DHT22;2411;47.060;15.064;2022-10-16T15:54:09;16.70;11.70
4795;DHT22;2411;47.060;15.064;2022-10-16T15:56:36;16.50;10.80
4795;DHT22;2411;47.060;15.064;2022-10-16T15:59:04;16.40;10.90
4795;DHT22;2411;47.060;15.064;2022-10-16T16:01:35;16.20;10.50
4795;DHT22;2411;47.060;15.064;2022-10-16T16:04:03;16.10;11.20
4795;DHT22;2411;47.060;15.064;2022-10-16T16:06:41;16.00;11.10
4795;DHT22;2411;47.060;15.064;2022-10-16T16:09:12;15.80;12.20
4795;DHT22;2411;47.060;15.064;2022-10-16T16:11:41;15.70;11.00
4795;DHT22;2411;47.060;15.064;2022-10-16T16:14:15;15.50;11.30
4795;DHT22;2411;47.060;15.064;2022-10-16T16:16:42;15.40;11.70
4795;DHT22;2411;47.060;15.064;2022-10-16T16:19:09;15.30;11.70
4795;DHT22;2411;47.060;15.064;2022-10-16T16:21:38;15.10;12.60
4795;DHT22;2411;47.060;15.064;2022-10-16T16:24:05;15.00;12.60
4795;DHT22;2411;47.060;15.064;2022-10-16T16:26:35;14.90;13.20
4795;DHT22;2411;47.060;15.064;2022-10-16T16:29:07;14.80;13.40
4795;DHT22;2411;47.060;15.064;2022-10-16T16:31:36;14.70;14.10
4795;DHT22;2411;47.060;15.064;2022-10-16T16:34:03;14.70;14.90
4795;DHT22;2411;47.060;15.064;2022-10-16T16:36:31;14.80;15.00
4795;DHT22;2411;47.060;15.064;2022-10-16T16:38:58;14.60;15.10
4795;DHT22;2411;47.060;15.064;2022-10-16T16:41:27;14.60;14.90
4795;DHT22;2411;47.060;15.064;2022-10-16T16:43:55;14.40;14.90
4795;DHT22;2411;47.060;15.064;2022-10-16T16:46:27;14.20;15.40
4795;DHT22;2411;47.060;15.064;2022-10-16T16:48:54;14.20;15.90
4795;DHT22;2411;47.060;15.064;2022-10-16T16:51:22;14.10;17.20
4795;DHT22;2411;47.060;15.064;2022-10-16T16:53:51;14.00;17.80
4795;DHT22;2411;47.060;15.064;2022-10-16T16:56:19;13.90;20.20
4795;DHT22;2411;47.060;15.064;2022-10-16T16:58:48;13.80;20.30
4795;DHT22;2411;47.060;15.064;2022-10-16T17:01:16;13.60;23.40
4795;DHT22;2411;47.060;15.064;2022-10-16T17:03:48;13.50;24.20
4795;DHT22;2411;47.060;15.064;2022-10-16T17:06:18;13.50;25.40
4795;DHT22;2411;47.060;15.064;2022-10-16T17:08:48;13.50;26.10
4795;DHT22;2411;47.060;15.064;2022-10-16T17:11:25;13.50;25.50
4795;DHT22;2411;47.060;15.064;2022-10-16T17:13:54;13.50;25.20
4795;DHT22;2411;47.060;15.064;2022-10-16T17:16:31;13.50;24.30
4795;DHT22;2411;47.060;15.064;2022-10-16T17:19:01;13.40;24.60
4795;DHT22;2411;47.060;15.064;2022-10-16T17:21:29;13.20;24.60
4795;DHT22;2411;47.060;15.064;2022-10-16T17:23:59;13.00;25.30
4795;DHT22;2411;47.060;15.064;2022-10-16T17:26:27;13.00;26.50
4795;DHT22;2411;47.060;15.064;2022-10-16T17:28:56;12.90;29.20
4795;DHT22;2411;47.060;15.064;2022-10-16T17:31:28;12.80;29.90
4795;DHT22;2411;47.060;15.064;2022-10-16T17:33:56;12.80;32.60
4795;DHT22;2411;47.060;15.064;2022-10-16T17:36:23;12.70;35.00
4795;DHT22;2411;47.060;15.064;2022-10-16T17:38:51;12.70;37.40
4795;DHT22;2411;47.060;15.064;2022-10-16T17:41:21;12.70;39.50
4795;DHT22;2411;47.060;15.064;2022-10-16T17:43:50;12.80;41.90
4795;DHT22;2411;47.060;15.064;2022-10-16T17:46:20;12.70;40.20
4795;DHT22;2411;47.060;15.064;2022-10-16T17:48:50;12.70;40.40
4795;DHT22;2411;47.060;15.064;2022-10-16T17:51:19;12.60;40.10
4795;DHT22;2411;47.060;15.064;2022-10-16T17:53:55;12.60;40.30
4795;DHT22;2411;47.060;15.064;2022-10-16T17:56:23;12.50;39.40
4795;DHT22;2411;47.060;15.064;2022-10-16T17:58:53;12.40;39.70
4795;DHT22;2411;47.060;15.064;2022-10-16T18:01:23;12.30;42.60
4795;DHT22;2411;47.060;15.064;2022-10-16T18:03:53;12.20;45.70
4795;DHT22;2411;47.060;15.064;2022-10-16T18:06:20;12.20;49.80